createdAt,value
2023-04-18T00:01:55.942Z,4.70
2023-04-18T00:04:24.256Z,6.50
2023-04-18T00:06:52.433Z,4.80
2023-04-18T00:09:20.814Z,5.00
2023-04-18T00:11:49.220Z,6.70
2023-04-18T00:14:17.391Z,8.70
2023-04-18T00:16:46.787Z,6.20
2023-04-18T00:19:15.618Z,7.40
2023-04-18T00:21:44.912Z,5.80
2023-04-18T00:24:13.582Z,5.50
2023-04-18T00:26:42.034Z,6.70
2023-04-18T00:29:10.123Z,6.20
2023-04-18T00:31:38.383Z,6.70
2023-04-18T00:34:06.626Z,7.80
2023-04-18T00:36:34.813Z,5.00
2023-04-18T00:39:02.985Z,6.10
2023-04-18T00:41:31.574Z,6.10
2023-04-18T00:43:59.870Z,6.80
2023-04-18T00:46:28.164Z,8.60
2023-04-18T00:48:56.294Z,7.10
2023-04-18T00:51:24.865Z,4.70
2023-04-18T00:53:53.081Z,7.40
2023-04-18T00:56:23.950Z,7.80
2023-04-18T00:58:52.121Z,6.00
2023-04-18T01:01:20.356Z,5.90
2023-04-18T01:03:48.687Z,7.10
2023-04-18T01:06:17.187Z,7.00
2023-04-18T01:08:45.815Z,7.30
2023-04-18T01:11:14.122Z,6.40
2023-04-18T01:13:42.291Z,6.60
2023-04-18T01:16:10.508Z,8.10
2023-04-18T01:18:40.309Z,7.40
2023-04-18T01:21:08.744Z,5.80
2023-04-18T01:23:37.000Z,7.00
2023-04-18T01:26:05.569Z,5.80
2023-04-18T01:28:36.700Z,9.90
2023-04-18T01:31:05.469Z,5.70
2023-04-18T01:33:33.926Z,6.90
2023-04-18T01:36:02.308Z,8.10
2023-04-18T01:38:33.114Z,6.10
2023-04-18T01:41:02.530Z,5.50
2023-04-18T01:43:30.813Z,6.90
2023-04-18T01:45:58.978Z,7.70
2023-04-18T01:48:27.491Z,7.40
2023-04-18T01:50:55.650Z,7.40
2023-04-18T01:53:24.762Z,6.40
2023-04-18T01:55:53.032Z,7.10
2023-04-18T01:58:23.803Z,5.60
2023-04-18T02:00:57.348Z,6.80
2023-04-18T02:03:25.854Z,7.30
2023-04-18T02:05:54.187Z,7.10
2023-04-18T02:08:22.493Z,7.60
2023-04-18T02:10:50.901Z,8.70
2023-04-18T02:13:19.675Z,7.00
2023-04-18T02:15:47.837Z,8.20
2023-04-18T02:18:17.541Z,5.30
2023-04-18T02:20:45.866Z,6.30
2023-04-18T02:23:14.079Z,5.90
2023-04-18T02:25:42.315Z,8.80
2023-04-18T02:28:10.699Z,4.90
2023-04-18T02:30:39.057Z,5.50
2023-04-18T02:33:07.317Z,6.20
2023-04-18T02:35:35.568Z,6.10
2023-04-18T02:38:04.278Z,7.70
2023-04-18T02:40:32.435Z,6.90
2023-04-18T02:43:02.125Z,8.80
2023-04-18T02:45:30.473Z,5.00
2023-04-18T02:47:59.720Z,6.10
2023-04-18T02:50:29.169Z,7.80
2023-04-18T02:52:57.837Z,6.20
2023-04-18T02:55:31.339Z,6.60
2023-04-18T02:58:00.461Z,6.50
2023-04-18T03:00:50.467Z,8.40
2023-04-18T03:03:38.609Z,7.00
2023-04-18T03:06:18.762Z,7.00
2023-04-18T03:08:47.859Z,7.20
2023-04-18T03:11:16.538Z,7.70
2023-04-18T03:13:44.700Z,9.40
2023-04-18T03:16:13.673Z,7.80
2023-04-18T03:18:43.534Z,8.70
2023-04-18T03:21:11.816Z,8.60
2023-04-18T03:23:40.442Z,6.40
2023-04-18T03:26:08.903Z,8.80
2023-04-18T03:28:37.901Z,5.80
2023-04-18T03:31:06.364Z,6.50
2023-04-18T03:33:36.276Z,7.20
2023-04-18T03:36:09.436Z,9.20
2023-04-18T03:38:40.483Z,9.20
2023-04-18T03:41:08.967Z,7.10
2023-04-18T03:43:38.304Z,8.50
2023-04-18T03:46:06.577Z,7.20
2023-04-18T03:48:37.360Z,9.60
2023-04-18T03:51:09.438Z,9.30
2023-04-18T03:53:38.064Z,7.60
2023-04-18T03:56:07.122Z,8.10
2023-04-18T03:58:52.192Z,8.00
2023-04-18T04:01:21.944Z,8.30
2023-04-18T04:03:52.239Z,5.60
2023-04-18T04:06:21.122Z,7.80
2023-04-18T04:08:49.291Z,6.80
2023-04-18T04:11:21.072Z,6.70
2023-04-18T04:13:49.629Z,7.00
2023-04-18T04:16:19.397Z,9.20
2023-04-18T04:18:49.192Z,6.20
2023-04-18T04:21:19.994Z,8.90
2023-04-18T04:23:52.173Z,8.80
2023-04-18T04:26:28.721Z,8.30
2023-04-18T04:29:03.667Z,8.70
2023-04-18T04:31:32.737Z,8.00
2023-04-18T04:34:01.526Z,8.60
2023-04-18T04:36:30.129Z,9.20
2023-04-18T04:38:59.625Z,8.50
2023-04-18T04:41:33.705Z,7.80
2023-04-18T04:44:02.235Z,11.10
2023-04-18T04:46:33.908Z,7.90
2023-04-18T04:49:05.208Z,7.10
2023-04-18T04:51:33.536Z,13.10
2023-04-18T04:54:01.879Z,7.30
2023-04-18T04:56:30.258Z,7.40
2023-04-18T04:58:58.731Z,6.20
2023-04-18T05:01:34.007Z,7.30
2023-04-18T05:04:02.393Z,7.90
2023-04-18T05:06:31.339Z,8.30
2023-04-18T05:09:01.181Z,9.30
2023-04-18T05:11:29.522Z,7.40
2023-04-18T05:13:57.939Z,8.20
2023-04-18T05:16:26.757Z,6.90
2023-04-18T05:18:54.901Z,7.50
2023-04-18T05:21:24.767Z,10.90
2023-04-18T05:23:53.300Z,8.20
2023-04-18T05:26:22.438Z,5.40
2023-04-18T05:28:50.719Z,9.10
2023-04-18T05:31:18.995Z,6.90
2023-04-18T05:33:47.130Z,8.60
2023-04-18T05:36:15.580Z,8.80
2023-04-18T05:38:43.685Z,8.00
2023-04-18T05:41:12.245Z,6.80
2023-04-18T05:43:41.819Z,11.00
2023-04-18T05:46:12.518Z,7.60
2023-04-18T05:48:40.800Z,8.20
2023-04-18T05:51:10.013Z,7.30
2023-04-18T05:53:39.651Z,8.60
2023-04-18T05:56:07.735Z,9.10
2023-04-18T05:58:36.109Z,8.90
2023-04-18T06:01:04.354Z,7.90
2023-04-18T06:03:32.664Z,9.40
2023-04-18T06:06:01.332Z,9.00
2023-04-18T06:08:29.661Z,8.90
2023-04-18T06:10:57.835Z,7.10
2023-04-18T06:13:26.036Z,13.20
2023-04-18T06:15:54.225Z,10.00
2023-04-18T06:18:22.467Z,11.60
2023-04-18T06:20:51.282Z,13.90
2023-04-18T06:23:20.067Z,10.40
2023-04-18T06:25:48.203Z,11.20
2023-04-18T06:28:17.898Z,9.80
2023-04-18T06:30:46.163Z,9.60
2023-04-18T06:33:14.284Z,10.80
2023-04-18T06:35:42.538Z,10.40
2023-04-18T06:38:11.690Z,10.00
2023-04-18T06:40:40.108Z,9.50
2023-04-18T06:43:08.327Z,8.40
2023-04-18T06:45:36.528Z,10.80
2023-04-18T06:48:05.170Z,8.90
2023-04-18T06:50:33.929Z,8.30
2023-04-18T06:53:02.365Z,10.00
2023-04-18T06:55:31.026Z,11.30
2023-04-18T06:58:00.522Z,15.70
2023-04-18T07:00:29.460Z,9.20
2023-04-18T07:02:58.083Z,13.70
2023-04-18T07:05:26.325Z,13.30
2023-04-18T07:07:54.584Z,10.40
2023-04-18T07:10:22.924Z,10.30
2023-04-18T07:12:51.235Z,9.60
2023-04-18T07:15:19.649Z,10.90
2023-04-18T07:17:47.818Z,9.50
2023-04-18T07:20:16.252Z,9.40
2023-04-18T07:22:44.447Z,11.30
2023-04-18T07:25:12.548Z,8.90
2023-04-18T07:27:40.803Z,9.20
2023-04-18T07:30:09.621Z,11.70
2023-04-18T07:32:37.956Z,10.70
2023-04-18T07:35:06.845Z,11.40
2023-04-18T07:37:34.974Z,11.20
2023-04-18T07:40:04.386Z,10.80
2023-04-18T07:42:33.090Z,11.10
2023-04-18T07:45:02.502Z,11.70
2023-04-18T07:47:32.223Z,10.20
2023-04-18T07:50:01.261Z,12.00
2023-04-18T07:52:29.651Z,10.90
2023-04-18T07:54:57.783Z,10.70
2023-04-18T07:57:25.972Z,9.10
2023-04-18T07:59:54.198Z,12.20
2023-04-18T08:02:22.410Z,8.00
2023-04-18T08:04:52.497Z,14.80
2023-04-18T08:07:20.802Z,5.90
2023-04-18T08:09:49.099Z,10.60
2023-04-18T08:12:17.299Z,10.90
2023-04-18T08:14:45.373Z,8.80
2023-04-18T08:17:13.593Z,8.90
2023-04-18T08:19:42.377Z,10.40
2023-04-18T08:22:10.980Z,9.90
2023-04-18T08:24:39.381Z,9.40
2023-04-18T08:27:07.706Z,6.90
2023-04-18T08:29:36.077Z,9.50
2023-04-18T08:32:07.182Z,9.50
2023-04-18T08:34:38.264Z,8.50
2023-04-18T08:37:07.344Z,11.00
2023-04-18T08:39:35.620Z,8.80
2023-04-18T08:42:03.911Z,7.40
2023-04-18T08:44:32.874Z,9.10
2023-04-18T08:47:01.599Z,11.20
2023-04-18T08:49:30.907Z,8.40
2023-04-18T08:51:59.080Z,11.90
2023-04-18T08:54:30.548Z,12.20
2023-04-18T08:57:09.094Z,9.00
2023-04-18T08:59:37.455Z,14.20
2023-04-18T09:02:10.225Z,9.40
2023-04-18T09:04:44.908Z,7.60
2023-04-18T09:07:18.075Z,8.80
2023-04-18T09:09:50.500Z,8.50
2023-04-18T09:12:26.420Z,7.90
2023-04-18T09:14:58.773Z,9.40
2023-04-18T09:17:35.103Z,9.10
2023-04-18T09:20:09.972Z,7.60
2023-04-18T09:22:48.738Z,10.10
2023-04-18T09:25:45.074Z,8.90
2023-04-18T09:30:57.714Z,5.70
2023-04-18T09:33:29.231Z,5.50
2023-04-18T09:36:18.144Z,7.20
2023-04-18T09:38:47.954Z,7.70
2023-04-18T09:41:19.153Z,8.80
2023-04-18T09:43:49.650Z,10.10
2023-04-18T09:46:18.100Z,8.10
2023-04-18T09:48:46.513Z,9.40
2023-04-18T09:51:16.034Z,9.20
2023-04-18T09:53:47.493Z,8.30
2023-04-18T09:57:22.024Z,7.20
2023-04-18T10:00:24.371Z,11.10
2023-04-18T10:03:05.822Z,9.70
2023-04-18T10:05:34.963Z,9.60
2023-04-18T10:08:03.540Z,7.20
2023-04-18T10:10:32.952Z,9.80
2023-04-18T10:13:03.743Z,8.90
2023-04-18T10:15:31.920Z,9.80
2023-04-18T10:18:05.632Z,14.50
2023-04-18T10:20:35.323Z,11.10
2023-04-18T10:23:35.095Z,7.30
2023-04-18T10:26:04.403Z,11.80
2023-04-18T10:28:53.659Z,5.00
2023-04-18T10:31:26.400Z,8.20
2023-04-18T10:34:04.636Z,8.50
2023-04-18T10:36:34.314Z,9.00
2023-04-18T10:39:20.474Z,7.70
2023-04-18T10:41:50.570Z,10.20
2023-04-18T10:44:22.023Z,6.80
2023-04-18T10:46:53.056Z,10.00
2023-04-18T10:49:31.181Z,7.50
2023-04-18T10:52:01.204Z,6.90
2023-04-18T10:54:42.461Z,11.40
2023-04-18T10:57:11.315Z,6.70
2023-04-18T10:59:43.995Z,11.30
2023-04-18T11:02:25.255Z,10.10
2023-04-18T11:04:54.379Z,6.80
2023-04-18T11:07:52.016Z,10.10
2023-04-18T11:10:22.115Z,13.20
2023-04-18T11:12:50.387Z,12.10
2023-04-18T11:15:23.040Z,7.60
2023-04-18T11:17:59.725Z,7.20
2023-04-18T11:20:28.774Z,9.60
2023-04-18T11:22:58.037Z,11.10
2023-04-18T11:25:27.007Z,7.70
2023-04-18T11:27:55.954Z,9.10
2023-04-18T11:30:24.360Z,11.20
2023-04-18T11:32:52.572Z,8.40
2023-04-18T11:35:20.995Z,11.10
2023-04-18T11:37:50.357Z,15.00
2023-04-18T11:40:18.666Z,8.10
2023-04-18T11:42:47.046Z,8.30
2023-04-18T11:45:15.517Z,7.10
2023-04-18T11:47:43.639Z,8.00
2023-04-18T11:50:12.709Z,11.10
2023-04-18T11:52:41.547Z,8.00
2023-04-18T11:55:19.792Z,11.10
2023-04-18T11:57:54.991Z,23.30
2023-04-18T12:00:33.357Z,11.70
2023-04-18T12:03:16.655Z,9.40
2023-04-18T12:05:45.662Z,11.70
2023-04-18T12:08:19.522Z,9.70
2023-04-18T12:10:48.888Z,9.10
2023-04-18T12:13:17.193Z,9.60
2023-04-18T12:15:46.324Z,11.40
2023-04-18T12:18:15.546Z,9.10
2023-04-18T12:20:51.535Z,9.60
2023-04-18T12:23:37.331Z,9.20
2023-04-18T12:26:15.040Z,11.10
2023-04-18T12:28:45.233Z,8.50
2023-04-18T12:31:13.512Z,11.40
2023-04-18T12:33:41.962Z,11.80
2023-04-18T12:36:10.579Z,8.10
2023-04-18T12:38:38.838Z,9.10
2023-04-18T12:41:07.074Z,11.90
2023-04-18T12:43:35.439Z,7.80
2023-04-18T12:46:03.898Z,9.10
2023-04-18T12:48:32.095Z,9.70
2023-04-18T12:51:00.374Z,7.10
2023-04-18T12:53:28.624Z,9.60
2023-04-18T12:55:56.756Z,8.90
2023-04-18T12:58:25.169Z,8.40
2023-04-18T13:00:53.514Z,8.30
2023-04-18T13:03:21.965Z,6.70
2023-04-18T13:05:50.510Z,10.70
2023-04-18T13:08:19.126Z,8.80
2023-04-18T13:10:47.836Z,11.30
2023-04-18T13:13:16.321Z,7.50
2023-04-18T13:15:44.641Z,10.60
2023-04-18T13:18:12.724Z,8.70
2023-04-18T13:20:41.558Z,9.70
2023-04-18T13:23:09.810Z,10.30
2023-04-18T13:25:38.461Z,9.90
2023-04-18T13:28:06.939Z,9.60
2023-04-18T13:30:35.947Z,8.60
2023-04-18T13:33:04.335Z,13.80
2023-04-18T13:35:32.786Z,9.90
2023-04-18T13:38:01.157Z,12.70
2023-04-18T13:40:30.003Z,8.90
2023-04-18T13:42:58.436Z,11.30
2023-04-18T13:45:26.701Z,7.70
2023-04-18T13:47:55.122Z,7.00
2023-04-18T13:50:23.354Z,8.40
2023-04-18T13:52:52.049Z,11.00
2023-04-18T13:55:20.298Z,8.80
2023-04-18T13:57:48.847Z,10.60
2023-04-18T14:00:17.576Z,9.20
2023-04-18T14:02:46.056Z,10.30
2023-04-18T14:05:14.648Z,12.30
2023-04-18T14:07:43.040Z,8.30
2023-04-18T14:10:11.576Z,10.20
2023-04-18T14:12:40.257Z,12.30
2023-04-18T14:15:09.204Z,12.30
2023-04-18T14:17:37.797Z,12.10
2023-04-18T14:20:06.725Z,10.90
2023-04-18T14:22:35.090Z,10.80
2023-04-18T14:25:03.344Z,11.50
2023-04-18T14:27:33.137Z,15.70
2023-04-18T14:30:01.401Z,14.20
2023-04-18T14:32:30.116Z,12.10
2023-04-18T14:34:59.310Z,14.30
2023-04-18T14:37:27.584Z,13.40
2023-04-18T14:39:55.785Z,13.10
2023-04-18T14:42:24.228Z,12.40
2023-04-18T14:44:52.365Z,17.50
2023-04-18T14:47:20.958Z,17.50
2023-04-18T14:49:49.299Z,14.00
2023-04-18T14:52:17.677Z,14.40
2023-04-18T14:54:45.815Z,12.70
2023-04-18T14:57:13.987Z,12.30
2023-04-18T14:59:42.645Z,7.70
2023-04-18T15:02:11.377Z,8.90
2023-04-18T15:04:39.981Z,10.60
2023-04-18T15:07:08.503Z,6.50
2023-04-18T15:09:37.730Z,7.20
2023-04-18T15:12:06.847Z,7.20
2023-04-18T15:14:35.923Z,5.80
2023-04-18T15:17:05.506Z,8.20
2023-04-18T15:19:34.673Z,5.30
2023-04-18T15:22:03.184Z,4.60
2023-04-18T15:24:31.369Z,4.30
2023-04-18T15:27:00.200Z,5.40
2023-04-18T15:29:28.770Z,7.20
2023-04-18T15:31:56.955Z,5.80
2023-04-18T15:34:27.009Z,4.00
2023-04-18T15:36:55.521Z,6.10
2023-04-18T15:39:24.025Z,3.90
2023-04-18T15:41:56.627Z,5.00
2023-04-18T15:44:24.880Z,5.50
2023-04-18T15:46:53.190Z,6.40
2023-04-18T15:49:21.551Z,5.20
2023-04-18T15:51:49.775Z,5.20
2023-04-18T15:54:18.081Z,5.90
2023-04-18T15:56:46.378Z,4.80
2023-04-18T15:59:14.710Z,5.90
2023-04-18T16:01:45.311Z,5.30
2023-04-18T16:04:15.668Z,3.80
2023-04-18T16:06:44.108Z,5.60
2023-04-18T16:09:12.234Z,5.70
2023-04-18T16:11:40.659Z,6.40
2023-04-18T16:14:09.007Z,3.70
2023-04-18T16:16:37.220Z,5.70
2023-04-18T16:19:05.974Z,4.40
2023-04-18T16:21:34.131Z,5.80
2023-04-18T16:24:02.373Z,6.90
2023-04-18T16:26:30.993Z,5.40
2023-04-18T16:28:59.188Z,4.80
2023-04-18T16:31:27.452Z,4.50
2023-04-18T16:33:56.266Z,4.90
2023-04-18T16:36:24.385Z,5.80
2023-04-18T16:38:52.513Z,8.20
2023-04-18T16:41:20.861Z,8.00
2023-04-18T16:43:49.093Z,11.00
2023-04-18T16:46:17.276Z,9.40
2023-04-18T16:48:45.648Z,10.20
2023-04-18T16:51:13.859Z,9.60
2023-04-18T16:53:42.830Z,9.60
2023-04-18T16:56:11.343Z,9.80
2023-04-18T16:58:39.494Z,10.50
2023-04-18T17:01:08.439Z,8.80
2023-04-18T17:03:37.574Z,10.60
2023-04-18T17:06:06.256Z,7.70
2023-04-18T17:08:34.576Z,9.80
2023-04-18T17:11:02.816Z,7.90
2023-04-18T17:13:31.800Z,7.20
2023-04-18T17:16:00.026Z,7.50
2023-04-18T17:18:29.338Z,7.10
2023-04-18T17:20:57.571Z,8.00
2023-04-18T17:23:26.154Z,6.90
2023-04-18T17:25:54.436Z,9.20
2023-04-18T17:28:23.748Z,6.20
2023-04-18T17:30:52.138Z,9.00
2023-04-18T17:33:21.223Z,7.50
2023-04-18T17:35:50.400Z,12.30
2023-04-18T17:38:18.658Z,8.90
2023-04-18T17:40:46.955Z,6.30
2023-04-18T17:43:15.116Z,7.00
2023-04-18T17:45:44.355Z,6.80
2023-04-18T17:48:12.809Z,8.00
2023-04-18T17:50:41.306Z,7.40
2023-04-18T17:53:09.577Z,7.90
2023-04-18T17:55:40.167Z,8.50
2023-04-18T17:58:08.848Z,6.70
2023-04-18T18:00:37.200Z,6.40
2023-04-18T18:03:05.736Z,9.00
2023-04-18T18:05:35.384Z,7.30
2023-04-18T18:08:03.899Z,6.40
2023-04-18T18:10:32.623Z,7.10
2023-04-18T18:13:00.769Z,6.50
2023-04-18T18:15:29.319Z,7.60
2023-04-18T18:17:57.927Z,9.20
2023-04-18T18:20:27.375Z,7.60
2023-04-18T18:22:55.888Z,7.00
2023-04-18T18:25:24.113Z,6.80
2023-04-18T18:27:54.691Z,6.70
2023-04-18T18:30:22.875Z,7.70
2023-04-18T18:32:53.462Z,7.60
2023-04-18T18:35:22.108Z,7.20
2023-04-18T18:37:50.620Z,13.70
2023-04-18T18:40:18.945Z,17.70
2023-04-18T18:42:49.572Z,13.30
2023-04-18T18:45:18.142Z,17.00
2023-04-18T18:47:46.305Z,13.00
2023-04-18T18:50:14.656Z,15.10
2023-04-18T18:52:43.524Z,14.70
2023-04-18T18:55:11.796Z,13.00
2023-04-18T18:57:40.637Z,14.60
2023-04-18T19:00:12.611Z,14.40
2023-04-18T19:02:41.618Z,17.60
2023-04-18T19:05:12.753Z,12.80
2023-04-18T19:07:42.389Z,14.50
2023-04-18T19:10:10.936Z,14.00
2023-04-18T19:12:39.255Z,13.70
2023-04-18T19:15:10.168Z,12.20
2023-04-18T19:17:39.687Z,14.00
2023-04-18T19:20:09.129Z,15.10
2023-04-18T19:22:38.050Z,14.30
2023-04-18T19:25:06.972Z,16.90
2023-04-18T19:27:35.879Z,13.70
2023-04-18T19:30:04.291Z,14.50
2023-04-18T19:32:33.266Z,14.60
2023-04-18T19:35:01.427Z,11.90
2023-04-18T19:37:30.499Z,16.30
2023-04-18T19:39:58.800Z,14.10
2023-04-18T19:42:27.251Z,16.40
2023-04-18T19:44:56.462Z,15.00
2023-04-18T19:47:25.084Z,14.90
2023-04-18T19:49:53.392Z,14.10
2023-04-18T19:52:21.574Z,15.30
2023-04-18T19:54:49.998Z,17.20
2023-04-18T19:57:18.063Z,15.80
2023-04-18T19:59:46.170Z,16.70
2023-04-18T20:02:14.605Z,14.30
2023-04-18T20:04:44.209Z,14.30
2023-04-18T20:07:12.385Z,14.10
2023-04-18T20:09:40.730Z,13.90
2023-04-18T20:12:09.002Z,20.40
2023-04-18T20:14:37.320Z,15.40
2023-04-18T20:17:05.926Z,16.70
2023-04-18T20:19:34.043Z,13.10
2023-04-18T20:22:02.265Z,13.80
2023-04-18T20:24:31.978Z,13.80
2023-04-18T20:27:01.511Z,14.30
2023-04-18T20:29:29.860Z,12.80
2023-04-18T20:31:58.276Z,13.50
2023-04-18T20:34:26.746Z,14.20
2023-04-18T20:36:55.597Z,12.40
2023-04-18T20:39:24.428Z,16.60
2023-04-18T20:41:53.888Z,15.10
2023-04-18T20:44:22.279Z,15.00
2023-04-18T20:46:52.034Z,14.60
2023-04-18T20:49:20.218Z,13.00
2023-04-18T20:51:48.303Z,13.40
2023-04-18T20:54:16.921Z,14.80
2023-04-18T20:56:45.385Z,10.70
2023-04-18T20:59:13.443Z,13.40
2023-04-18T21:01:42.121Z,19.20
2023-04-18T21:04:11.186Z,37.30
2023-04-18T21:06:39.531Z,41.10
2023-04-18T21:09:08.198Z,37.30
2023-04-18T21:11:36.267Z,31.00
2023-04-18T21:14:06.630Z,22.40
2023-04-18T21:16:36.913Z,20.70
2023-04-18T21:19:06.467Z,26.80
2023-04-18T21:21:35.106Z,22.30
2023-04-18T21:24:03.492Z,21.90
2023-04-18T21:26:31.654Z,20.30
2023-04-18T21:29:01.219Z,12.00
2023-04-18T21:31:31.038Z,12.60
2023-04-18T21:34:03.303Z,11.40
2023-04-18T21:36:32.021Z,9.20
2023-04-18T21:39:01.019Z,11.50
2023-04-18T21:41:29.894Z,7.20
2023-04-18T21:48:14.278Z,8.80
2023-04-18T21:50:43.186Z,8.20
2023-04-18T21:53:11.446Z,12.00
2023-04-18T21:55:39.572Z,8.00
2023-04-18T21:58:07.834Z,7.60
2023-04-18T22:00:36.188Z,8.90
2023-04-18T22:03:04.514Z,6.90
2023-04-18T22:05:34.981Z,7.20
2023-04-18T22:08:03.626Z,6.00
2023-04-18T22:10:34.458Z,8.70
2023-04-18T22:13:05.825Z,8.70
2023-04-18T22:15:34.210Z,7.20
2023-04-18T22:18:03.119Z,9.10
2023-04-18T22:20:33.665Z,9.90
2023-04-18T22:23:07.037Z,10.80
2023-04-18T22:25:35.630Z,8.00
2023-04-18T22:28:03.942Z,10.30
2023-04-18T22:30:32.801Z,6.60
2023-04-18T22:33:01.285Z,12.10
2023-04-18T22:35:29.939Z,6.40
2023-04-18T22:37:58.025Z,6.60
2023-04-18T22:40:26.827Z,9.40
2023-04-18T22:42:55.165Z,8.50
2023-04-18T22:45:23.402Z,8.10
2023-04-18T22:47:51.859Z,11.90
2023-04-18T22:50:20.061Z,9.30
2023-04-18T22:52:48.539Z,9.30
2023-04-18T22:55:17.481Z,8.10
2023-04-18T22:57:45.649Z,9.60
2023-04-18T23:00:14.564Z,7.00
2023-04-18T23:02:43.314Z,6.60
2023-04-18T23:05:11.684Z,7.10
2023-04-18T23:07:41.391Z,11.90
2023-04-18T23:10:10.194Z,7.80
2023-04-18T23:12:38.733Z,7.80
2023-04-18T23:15:07.460Z,6.80
2023-04-18T23:17:35.753Z,8.60
2023-04-18T23:20:06.987Z,6.90
2023-04-18T23:22:35.738Z,6.90
2023-04-18T23:25:04.445Z,7.50
2023-04-18T23:27:33.068Z,8.10
2023-04-18T23:30:01.581Z,8.30
2023-04-18T23:32:30.365Z,7.40
2023-04-18T23:35:04.054Z,7.10
2023-04-18T23:37:32.731Z,6.10
2023-04-18T23:40:01.061Z,6.30
2023-04-18T23:42:29.730Z,8.80
2023-04-18T23:44:58.932Z,6.90
2023-04-18T23:47:27.094Z,7.30
2023-04-18T23:49:55.390Z,8.80
2023-04-18T23:52:23.578Z,9.40
2023-04-18T23:54:51.841Z,10.30
2023-04-18T23:57:20.164Z,10.60
2023-04-18T23:59:49.011Z,9.50
